Terminal Aerodrome Forecast
Issued by NWS Sterling, VA

Current Version | Previous Version | Graphics & Text | Print | Product List | Glossary On
Versions: 1 2 3 4 5 6 7 8 9 10 11 12 13 14 15 16 17 18 19 20 21 22 23
000
FTUS41 KLWX 181431 AAA
TAFIAD
TAF AMD
KIAD 181431Z 1815/1918 VRB03KT P6SM SCT050 SCT200
     FM181800 17005KT P6SM VCTS SCT050CB SCT250
     FM182300 16005KT P6SM SCT050
     FM190900 00000KT 6SM BR FEW050 FEW250
     FM191200 VRB03KT P6SM SCT050=

USA.gov is the U.S. government's official web portal to all federal, state and local government web resources and services.